sensor_id;sensor_type;location;lat;lon;timestamp;pressure;altitude;pressure_sealevel;temperature;humidity
69784;BME280;57054;51.978;4.498;2024-02-28T00:00:55;102004.84;;;4.16;100.00
69784;BME280;57054;51.978;4.498;2024-02-28T00:03:20;102000.53;;;4.18;100.00
69784;BME280;57054;51.978;4.498;2024-02-28T00:05:47;102000.53;;;4.18;100.00
69784;BME280;57054;51.978;4.498;2024-02-28T00:08:13;101991.91;;;4.19;100.00
69784;BME280;57054;51.978;4.498;2024-02-28T00:10:38;101991.03;;;4.18;100.00
69784;BME280;57054;51.978;4.498;2024-02-28T00:13:03;102001.41;;;4.18;100.00
69784;BME280;57054;51.978;4.498;2024-02-28T00:15:29;102003.13;;;4.18;100.00
69784;BME280;57054;51.978;4.498;2024-02-28T00:17:54;101986.72;;;4.19;100.00
69784;BME280;57054;51.978;4.498;2024-02-28T00:20:19;101989.31;;;4.19;100.00
69784;BME280;57054;51.978;4.498;2024-02-28T00:22:44;101993.63;;;4.17;100.00
69784;BME280;57054;51.978;4.498;2024-02-28T00:25:10;101995.31;;;4.16;100.00
69784;BME280;57054;51.978;4.498;2024-02-28T00:27:36;101991.03;;;4.15;100.00
69784;BME280;57054;51.978;4.498;2024-02-28T00:30:02;101990.16;;;4.15;100.00
69784;BME280;57054;51.978;4.498;2024-02-28T00:32:29;101994.47;;;4.16;100.00
69784;BME280;57054;51.978;4.498;2024-02-28T00:34:55;101997.94;;;4.13;100.00
69784;BME280;57054;51.978;4.498;2024-02-28T00:37:20;101995.31;;;4.09;100.00
69784;BME280;57054;51.978;4.498;2024-02-28T00:39:46;101991.84;;;4.07;100.00
69784;BME280;57054;51.978;4.498;2024-02-28T00:42:11;101993.56;;;4.04;100.00
69784;BME280;57054;51.978;4.498;2024-02-28T00:44:37;101990.09;;;4.01;100.00
69784;BME280;57054;51.978;4.498;2024-02-28T00:47:02;101994.41;;;4.00;100.00
69784;BME280;57054;51.978;4.498;2024-02-28T00:49:27;101993.53;;;3.98;100.00
69784;BME280;57054;51.978;4.498;2024-02-28T00:51:52;101997.81;;;3.96;100.00
69784;BME280;57054;51.978;4.498;2024-02-28T00:54:17;101997.81;;;3.92;100.00
69784;BME280;57054;51.978;4.498;2024-02-28T00:56:43;102008.16;;;3.90;100.00
69784;BME280;57054;51.978;4.498;2024-02-28T00:59:08;102010.75;;;3.90;100.00
69784;BME280;57054;51.978;4.498;2024-02-28T01:01:36;102009.91;;;3.90;100.00
69784;BME280;57054;51.978;4.498;2024-02-28T01:04:01;102002.97;;;3.89;100.00
69784;BME280;57054;51.978;4.498;2024-02-28T01:06:26;102005.56;;;3.90;100.00
69784;BME280;57054;51.978;4.498;2024-02-28T01:08:51;102002.13;;;3.91;100.00
69784;BME280;57054;51.978;4.498;2024-02-28T01:11:17;102003.84;;;3.92;100.00
69784;BME280;57054;51.978;4.498;2024-02-28T01:13:42;101995.25;;;3.95;100.00
69784;BME280;57054;51.978;4.498;2024-02-28T01:16:07;102003.03;;;3.98;100.00
69784;BME280;57054;51.978;4.498;2024-02-28T01:18:33;101996.97;;;3.97;100.00
69784;BME280;57054;51.978;4.498;2024-02-28T01:20:58;101987.47;;;3.98;100.00
69784;BME280;57054;51.978;4.498;2024-02-28T01:23:23;101991.78;;;3.94;100.00
69784;BME280;57054;51.978;4.498;2024-02-28T01:25:48;101991.78;;;3.97;100.00
69784;BME280;57054;51.978;4.498;2024-02-28T01:28:13;101985.75;;;3.95;100.00
69784;BME280;57054;51.978;4.498;2024-02-28T01:30:39;101991.78;;;3.97;100.00
69784;BME280;57054;51.978;4.498;2024-02-28T01:33:04;101986.63;;;3.97;100.00
69784;BME280;57054;51.978;4.498;2024-02-28T01:35:29;101979.72;;;4.01;100.00
69784;BME280;57054;51.978;4.498;2024-02-28T01:37:54;101980.59;;;4.03;100.00
69784;BME280;57054;51.978;4.498;2024-02-28T01:40:20;101986.63;;;4.03;100.00
69784;BME280;57054;51.978;4.498;2024-02-28T01:42:46;101988.38;;;4.04;100.00
69784;BME280;57054;51.978;4.498;2024-02-28T01:45:12;101992.69;;;4.04;100.00
69784;BME280;57054;51.978;4.498;2024-02-28T01:47:38;101994.41;;;4.05;100.00
69784;BME280;57054;51.978;4.498;2024-02-28T01:50:04;101997.88;;;4.09;100.00
69784;BME280;57054;51.978;4.498;2024-02-28T01:52:29;101991.88;;;4.11;100.00
69784;BME280;57054;51.978;4.498;2024-02-28T01:54:55;101995.31;;;4.12;100.00
69784;BME280;57054;51.978;4.498;2024-02-28T01:57:21;101990.13;;;4.10;100.00
69784;BME280;57054;51.978;4.498;2024-02-28T01:59:47;101983.22;;;4.14;100.00
69784;BME280;57054;51.978;4.498;2024-02-28T02:02:13;101987.53;;;4.16;100.00
69784;BME280;57054;51.978;4.498;2024-02-28T02:04:38;101984.97;;;4.19;100.00
69784;BME280;57054;51.978;4.498;2024-02-28T02:07:03;101978.06;;;4.20;100.00
69784;BME280;57054;51.978;4.498;2024-02-28T02:09:28;101984.97;;;4.19;100.00
69784;BME280;57054;51.978;4.498;2024-02-28T02:11:54;101978.94;;;4.22;100.00
69784;BME280;57054;51.978;4.498;2024-02-28T02:14:19;101975.50;;;4.26;100.00
69784;BME280;57054;51.978;4.498;2024-02-28T02:16:44;101975.53;;;4.28;100.00
69784;BME280;57054;51.978;4.498;2024-02-28T02:19:09;101978.09;;;4.29;100.00
69784;BME280;57054;51.978;4.498;2024-02-28T02:21:37;101982.41;;;4.29;100.00
69784;BME280;57054;51.978;4.498;2024-02-28T02:24:04;101983.28;;;4.31;100.00
69784;BME280;57054;51.978;4.498;2024-02-28T02:26:30;101977.25;;;4.32;100.00
69784;BME280;57054;51.978;4.498;2024-02-28T02:28:55;101987.63;;;4.33;100.00
69784;BME280;57054;51.978;4.498;2024-02-28T02:31:20;101987.63;;;4.33;100.00
69784;BME280;57054;51.978;4.498;2024-02-28T02:33:45;101990.22;;;4.36;100.00
69784;BME280;57054;51.978;4.498;2024-02-28T02:36:11;101982.47;;;4.39;100.00
69784;BME280;57054;51.978;4.498;2024-02-28T02:38:36;101985.91;;;4.41;100.00
69784;BME280;57054;51.978;4.498;2024-02-28T02:41:01;101983.34;;;4.43;100.00
69784;BME280;57054;51.978;4.498;2024-02-28T02:43:26;101984.19;;;4.45;100.00
69784;BME280;57054;51.978;4.498;2024-02-28T02:45:52;101979.91;;;4.44;100.00
69784;BME280;57054;51.978;4.498;2024-02-28T02:48:17;101979.88;;;4.46;100.00
69784;BME280;57054;51.978;4.498;2024-02-28T02:50:42;101972.97;;;4.46;100.00
69784;BME280;57054;51.978;4.498;2024-02-28T02:53:09;101979.00;;;4.43;100.00
69784;BME280;57054;51.978;4.498;2024-02-28T02:55:34;101983.34;;;4.46;100.00
69784;BME280;57054;51.978;4.498;2024-02-28T02:58:00;101978.16;;;4.46;100.00
69784;BME280;57054;51.978;4.498;2024-02-28T03:00:25;101977.31;;;4.50;100.00
69784;BME280;57054;51.978;4.498;2024-02-28T03:02:51;101975.59;;;4.55;100.00
69784;BME280;57054;51.978;4.498;2024-02-28T03:05:16;101966.94;;;4.56;100.00
69784;BME280;57054;51.978;4.498;2024-02-28T03:07:41;101970.41;;;4.57;100.00
69784;BME280;57054;51.978;4.498;2024-02-28T03:10:06;101973.03;;;4.58;100.00
69784;BME280;57054;51.978;4.498;2024-02-28T03:12:32;101971.28;;;4.60;100.00
69784;BME280;57054;51.978;4.498;2024-02-28T03:14:57;101973.00;;;4.60;100.00
69784;BME280;57054;51.978;4.498;2024-02-28T03:17:22;101970.41;;;4.61;100.00
69784;BME280;57054;51.978;4.498;2024-02-28T03:19:48;101981.66;;;4.67;100.00
69784;BME280;57054;51.978;4.498;2024-02-28T03:22:13;101973.91;;;4.70;100.00
69784;BME280;57054;51.978;4.498;2024-02-28T03:24:38;101976.50;;;4.71;100.00
69784;BME280;57054;51.978;4.498;2024-02-28T03:27:04;101968.69;;;4.74;100.00
69784;BME280;57054;51.978;4.498;2024-02-28T03:29:29;101966.97;;;4.78;100.00
69784;BME280;57054;51.978;4.498;2024-02-28T03:31:54;101967.88;;;4.78;100.00
69784;BME280;57054;51.978;4.498;2024-02-28T03:34:20;101958.31;;;4.76;100.00
69784;BME280;57054;51.978;4.498;2024-02-28T03:36:45;101958.34;;;4.77;100.00
69784;BME280;57054;51.978;4.498;2024-02-28T03:39:11;101956.59;;;4.79;100.00
69784;BME280;57054;51.978;4.498;2024-02-28T03:41:36;101955.72;;;4.77;100.00
69784;BME280;57054;51.978;4.498;2024-02-28T03:44:01;101958.34;;;4.77;100.00
69784;BME280;57054;51.978;4.498;2024-02-28T03:46:26;101963.53;;;4.80;100.00
69784;BME280;57054;51.978;4.498;2024-02-28T03:48:52;101956.63;;;4.83;100.00
69784;BME280;57054;51.978;4.498;2024-02-28T03:51:17;101965.25;;;4.83;100.00
69784;BME280;57054;51.978;4.498;2024-02-28T03:53:42;101957.47;;;4.85;100.00
69784;BME280;57054;51.978;4.498;2024-02-28T03:56:07;101957.47;;;4.85;100.00
69784;BME280;57054;51.978;4.498;2024-02-28T03:58:33;101960.94;;;4.87;100.00
69784;BME280;57054;51.978;4.498;2024-02-28T04:00:58;101959.19;;;4.87;100.00
69784;BME280;57054;51.978;4.498;2024-02-28T04:03:23;101961.78;;;4.87;100.00
69784;BME280;57054;51.978;4.498;2024-02-28T04:05:48;101967.00;;;4.89;100.00
69784;BME280;57054;51.978;4.498;2024-02-28T04:08:13;101968.75;;;4.90;100.00
69784;BME280;57054;51.978;4.498;2024-02-28T04:10:39;101963.53;;;4.88;100.00
69784;BME280;57054;51.978;4.498;2024-02-28T04:13:04;101975.63;;;4.89;100.00
69784;BME280;57054;51.978;4.498;2024-02-28T04:15:30;101968.75;;;4.90;100.00
69784;BME280;57054;51.978;4.498;2024-02-28T04:17:55;101969.59;;;4.90;100.00
69784;BME280;57054;51.978;4.498;2024-02-28T04:20:20;101967.84;;;4.91;100.00
69784;BME280;57054;51.978;4.498;2024-02-28T04:22:45;101963.53;;;4.93;100.00
69784;BME280;57054;51.978;4.498;2024-02-28T04:25:11;101976.50;;;4.93;100.00
69784;BME280;57054;51.978;4.498;2024-02-28T04:27:36;101979.09;;;4.93;100.00
69784;BME280;57054;51.978;4.498;2024-02-28T04:30:02;101986.88;;;4.93;100.00
69784;BME280;57054;51.978;4.498;2024-02-28T04:32:27;101984.28;;;4.94;100.00
69784;BME280;57054;51.978;4.498;2024-02-28T04:34:52;101990.38;;;4.95;100.00
69784;BME280;57054;51.978;4.498;2024-02-28T04:37:18;101990.34;;;4.96;100.00
69784;BME280;57054;51.978;4.498;2024-02-28T04:39:43;102003.34;;;4.98;100.00
69784;BME280;57054;51.978;4.498;2024-02-28T04:42:08;102005.09;;;4.99;100.00
69784;BME280;57054;51.978;4.498;2024-02-28T04:44:34;102007.69;;;4.99;100.00
69784;BME280;57054;51.978;4.498;2024-02-28T04:46:59;102003.34;;;4.99;100.00
69784;BME280;57054;51.978;4.498;2024-02-28T04:49:24;101996.44;;;4.98;100.00
69784;BME280;57054;51.978;4.498;2024-02-28T04:51:49;102002.50;;;4.99;100.00
69784;BME280;57054;51.978;4.498;2024-02-28T04:54:15;102006.81;;;4.98;100.00
69784;BME280;57054;51.978;4.498;2024-02-28T04:56:40;101996.41;;;5.00;100.00
69784;BME280;57054;51.978;4.498;2024-02-28T04:59:06;101994.72;;;5.02;100.00
69784;BME280;57054;51.978;4.498;2024-02-28T05:01:31;101993.81;;;5.02;100.00
69784;BME280;57054;51.978;4.498;2024-02-28T05:03:56;101988.63;;;5.02;100.00
69784;BME280;57054;51.978;4.498;2024-02-28T05:06:22;101994.72;;;5.00;100.00
69784;BME280;57054;51.978;4.498;2024-02-28T05:08:47;101987.78;;;4.99;100.00
69784;BME280;57054;51.978;4.498;2024-02-28T05:11:12;101995.56;;;5.01;100.00
69784;BME280;57054;51.978;4.498;2024-02-28T05:13:37;101992.13;;;5.02;100.00
69784;BME280;57054;51.978;4.498;2024-02-28T05:16:03;101992.13;;;5.02;100.00
69784;BME280;57054;51.978;4.498;2024-02-28T05:18:28;101998.16;;;5.03;100.00
69784;BME280;57054;51.978;4.498;2024-02-28T05:20:53;102004.22;;;5.03;100.00
69784;BME280;57054;51.978;4.498;2024-02-28T05:23:19;102001.63;;;5.03;100.00
69784;BME280;57054;51.978;4.498;2024-02-28T05:25:45;101999.88;;;5.04;100.00
69784;BME280;57054;51.978;4.498;2024-02-28T05:28:11;102000.75;;;5.06;100.00
69784;BME280;57054;51.978;4.498;2024-02-28T05:30:36;101995.56;;;5.04;100.00
69784;BME280;57054;51.978;4.498;2024-02-28T05:33:01;101999.91;;;5.00;100.00
69784;BME280;57054;51.978;4.498;2024-02-28T05:35:27;101995.56;;;5.04;100.00
69784;BME280;57054;51.978;4.498;2024-02-28T05:37:55;101992.09;;;5.07;100.00
69784;BME280;57054;51.978;4.498;2024-02-28T05:40:20;101995.56;;;5.07;100.00
69784;BME280;57054;51.978;4.498;2024-02-28T05:42:45;101987.78;;;5.07;100.00
69784;BME280;57054;51.978;4.498;2024-02-28T05:45:11;101992.97;;;5.07;100.00
69784;BME280;57054;51.978;4.498;2024-02-28T05:47:37;101998.16;;;5.06;100.00
69784;BME280;57054;51.978;4.498;2024-02-28T05:50:02;102005.09;;;5.07;100.00
69784;BME280;57054;51.978;4.498;2024-02-28T05:52:28;101992.97;;;5.09;100.00
69784;BME280;57054;51.978;4.498;2024-02-28T05:54:53;101991.22;;;5.11;100.00
69784;BME280;57054;51.978;4.498;2024-02-28T05:57:18;101985.19;;;5.12;100.00
69784;BME280;57054;51.978;4.498;2024-02-28T05:59:46;101986.91;;;5.13;100.00
69784;BME280;57054;51.978;4.498;2024-02-28T06:02:11;101994.69;;;5.16;100.00
69784;BME280;57054;51.978;4.498;2024-02-28T06:04:36;101992.09;;;5.16;100.00
69784;BME280;57054;51.978;4.498;2024-02-28T06:07:02;102004.25;;;5.17;100.00
69784;BME280;57054;51.978;4.498;2024-02-28T06:09:27;102000.75;;;5.16;100.00
69784;BME280;57054;51.978;4.498;2024-02-28T06:11:53;101998.16;;;5.16;100.00
69784;BME280;57054;51.978;4.498;2024-02-28T06:14:18;101991.25;;;5.18;100.00
69784;BME280;57054;51.978;4.498;2024-02-28T06:16:46;101993.84;;;5.18;100.00
69784;BME280;57054;51.978;4.498;2024-02-28T06:19:11;101998.16;;;5.18;100.00
69784;BME280;57054;51.978;4.498;2024-02-28T06:21:36;101999.91;;;5.19;100.00
69784;BME280;57054;51.978;4.498;2024-02-28T06:24:01;102004.22;;;5.20;100.00
69784;BME280;57054;51.978;4.498;2024-02-28T06:26:27;102008.56;;;5.21;100.00
69784;BME280;57054;51.978;4.498;2024-02-28T06:28:52;102007.69;;;5.21;100.00
69784;BME280;57054;51.978;4.498;2024-02-28T06:31:18;102018.94;;;5.21;100.00
69784;BME280;57054;51.978;4.498;2024-02-28T06:33:44;102012.91;;;5.21;100.00
69784;BME280;57054;51.978;4.498;2024-02-28T06:36:10;102020.69;;;5.21;100.00
69784;BME280;57054;51.978;4.498;2024-02-28T06:38:36;102030.19;;;5.23;100.00
69784;BME280;57054;51.978;4.498;2024-02-28T06:41:02;102033.69;;;5.22;100.00
69784;BME280;57054;51.978;4.498;2024-02-28T06:43:27;102047.53;;;5.23;100.00
69784;BME280;57054;51.978;4.498;2024-02-28T06:45:53;102037.16;;;5.24;100.00
69784;BME280;57054;51.978;4.498;2024-02-28T06:48:18;102038.00;;;5.26;100.00
69784;BME280;57054;51.978;4.498;2024-02-28T06:50:43;102039.72;;;5.27;100.00
69784;BME280;57054;51.978;4.498;2024-02-28T06:53:08;102039.75;;;5.26;100.00
69784;BME280;57054;51.978;4.498;2024-02-28T06:55:34;102056.19;;;5.26;100.00
69784;BME280;57054;51.978;4.498;2024-02-28T06:57:59;102042.31;;;5.29;100.00
69784;BME280;57054;51.978;4.498;2024-02-28T07:00:24;102050.13;;;5.32;100.00
69784;BME280;57054;51.978;4.498;2024-02-28T07:02:49;102044.06;;;5.31;100.00
69784;BME280;57054;51.978;4.498;2024-02-28T07:05:15;102042.34;;;5.33;100.00
69784;BME280;57054;51.978;4.498;2024-02-28T07:07:40;102044.06;;;5.36;100.00
69784;BME280;57054;51.978;4.498;2024-02-28T07:10:08;102048.41;;;5.35;100.00
69784;BME280;57054;51.978;4.498;2024-02-28T07:12:33;102047.50;;;5.36;100.00
69784;BME280;57054;51.978;4.498;2024-02-28T07:14:59;102051.84;;;5.37;100.00
69784;BME280;57054;51.978;4.498;2024-02-28T07:17:24;102041.47;;;5.41;100.00
69784;BME280;57054;51.978;4.498;2024-02-28T07:19:49;102054.44;;;5.44;100.00
69784;BME280;57054;51.978;4.498;2024-02-28T07:22:15;102056.19;;;5.45;100.00
69784;BME280;57054;51.978;4.498;2024-02-28T07:24:40;102057.94;;;5.46;100.00
69784;BME280;57054;51.978;4.498;2024-02-28T07:27:06;102056.19;;;5.48;100.00
69784;BME280;57054;51.978;4.498;2024-02-28T07:29:31;102053.56;;;5.49;100.00
69784;BME280;57054;51.978;4.498;2024-02-28T07:31:56;102054.47;;;5.51;100.00
69784;BME280;57054;51.978;4.498;2024-02-28T07:34:22;102050.13;;;5.53;100.00
69784;BME280;57054;51.978;4.498;2024-02-28T07:36:47;102060.53;;;5.55;100.00
69784;BME280;57054;51.978;4.498;2024-02-28T07:39:12;102058.78;;;5.55;100.00
69784;BME280;57054;51.978;4.498;2024-02-28T07:41:41;102070.91;;;5.58;100.00
69784;BME280;57054;51.978;4.498;2024-02-28T07:44:06;102072.66;;;5.61;100.00
69784;BME280;57054;51.978;4.498;2024-02-28T07:46:35;102067.47;;;5.62;100.00
69784;BME280;57054;51.978;4.498;2024-02-28T07:49:00;102076.13;;;5.66;100.00
69784;BME280;57054;51.978;4.498;2024-02-28T07:51:26;102077.84;;;5.68;100.00
69784;BME280;57054;51.978;4.498;2024-02-28T07:53:51;102082.16;;;5.71;100.00
69784;BME280;57054;51.978;4.498;2024-02-28T07:56:16;102089.97;;;5.72;100.00
69784;BME280;57054;51.978;4.498;2024-02-28T07:58:42;102091.72;;;5.73;100.00
69784;BME280;57054;51.978;4.498;2024-02-28T08:01:08;102096.03;;;5.74;100.00
69784;BME280;57054;51.978;4.498;2024-02-28T08:03:33;102095.19;;;5.79;100.00
69784;BME280;57054;51.978;4.498;2024-02-28T08:05:58;102093.44;;;5.81;100.00
69784;BME280;57054;51.978;4.498;2024-02-28T08:08:24;102092.56;;;5.85;100.00
69784;BME280;57054;51.978;4.498;2024-02-28T08:10:49;102098.63;;;5.87;100.00
69784;BME280;57054;51.978;4.498;2024-02-28T08:13:16;102102.06;;;5.87;100.00
69784;BME280;57054;51.978;4.498;2024-02-28T08:15:42;102112.47;;;5.89;100.00
69784;BME280;57054;51.978;4.498;2024-02-28T08:18:07;102107.28;;;5.89;100.00
69784;BME280;57054;51.978;4.498;2024-02-28T08:20:32;102112.47;;;5.89;100.00
69784;BME280;57054;51.978;4.498;2024-02-28T08:22:58;102121.16;;;5.92;100.00
69784;BME280;57054;51.978;4.498;2024-02-28T08:25:23;102122.88;;;5.90;100.00
69784;BME280;57054;51.978;4.498;2024-02-28T08:27:49;102116.81;;;5.94;100.00
69784;BME280;57054;51.978;4.498;2024-02-28T08:30:14;102118.56;;;5.94;100.00
69784;BME280;57054;51.978;4.498;2024-02-28T08:32:40;102125.50;;;5.93;100.00
69784;BME280;57054;51.978;4.498;2024-02-28T08:35:07;102131.56;;;5.94;100.00
69784;BME280;57054;51.978;4.498;2024-02-28T08:37:33;102128.94;;;5.94;100.00
69784;BME280;57054;51.978;4.498;2024-02-28T08:39:58;102134.19;;;5.95;100.00
69784;BME280;57054;51.978;4.498;2024-02-28T08:42:26;102129.00;;;5.95;100.00
69784;BME280;57054;51.978;4.498;2024-02-28T08:44:52;102129.84;;;5.98;100.00
69784;BME280;57054;51.978;4.498;2024-02-28T08:47:17;102135.06;;;5.99;100.00
69784;BME280;57054;51.978;4.498;2024-02-28T08:49:43;102125.50;;;6.01;100.00
69784;BME280;57054;51.978;4.498;2024-02-28T08:52:09;102125.50;;;6.03;100.00
69784;BME280;57054;51.978;4.498;2024-02-28T08:54:34;102120.31;;;6.06;100.00
69784;BME280;57054;51.978;4.498;2024-02-28T08:56:59;102119.44;;;6.08;100.00
69784;BME280;57054;51.978;4.498;2024-02-28T08:59:25;102115.94;;;6.12;100.00
69784;BME280;57054;51.978;4.498;2024-02-28T09:01:50;102122.03;;;6.16;100.00
69784;BME280;57054;51.978;4.498;2024-02-28T09:04:15;102109.88;;;6.21;100.00
69784;BME280;57054;51.978;4.498;2024-02-28T09:06:41;102119.41;;;6.24;100.00
69784;BME280;57054;51.978;4.498;2024-02-28T09:09:06;102123.75;;;6.28;100.00
69784;BME280;57054;51.978;4.498;2024-02-28T09:11:31;102118.53;;;6.29;100.00
69784;BME280;57054;51.978;4.498;2024-02-28T09:13:56;102116.75;;;6.33;100.00
69784;BME280;57054;51.978;4.498;2024-02-28T09:16:22;102121.13;;;6.37;100.00
69784;BME280;57054;51.978;4.498;2024-02-28T09:18:47;102117.63;;;6.38;100.00
69784;BME280;57054;51.978;4.498;2024-02-28T09:21:12;102115.88;;;6.42;100.00
69784;BME280;57054;51.978;4.498;2024-02-28T09:23:38;102111.53;;;6.47;100.00
69784;BME280;57054;51.978;4.498;2024-02-28T09:26:06;102108.91;;;6.53;100.00
69784;BME280;57054;51.978;4.498;2024-02-28T09:28:31;102124.50;;;6.59;100.00
69784;BME280;57054;51.978;4.498;2024-02-28T09:30:57;102124.47;;;6.64;100.00
69784;BME280;57054;51.978;4.498;2024-02-28T09:33:22;102128.81;;;6.68;100.00
69784;BME280;57054;51.978;4.498;2024-02-28T09:35:47;102134.88;;;6.70;100.00
69784;BME280;57054;51.978;4.498;2024-02-28T09:38:13;102130.53;;;6.70;100.00
69784;BME280;57054;51.978;4.498;2024-02-28T09:40:38;102129.66;;;6.73;100.00
69784;BME280;57054;51.978;4.498;2024-02-28T09:43:03;102129.66;;;6.76;100.00
69784;BME280;57054;51.978;4.498;2024-02-28T09:45:29;102127.03;;;6.81;100.00
69784;BME280;57054;51.978;4.498;2024-02-28T09:47:56;102131.34;;;6.83;100.00
69784;BME280;57054;51.978;4.498;2024-02-28T09:50:21;102125.28;;;6.86;100.00
69784;BME280;57054;51.978;4.498;2024-02-28T09:52:47;102124.38;;;6.88;100.00
69784;BME280;57054;51.978;4.498;2024-02-28T09:55:12;102128.72;;;6.91;100.00
69784;BME280;57054;51.978;4.498;2024-02-28T09:57:37;102133.91;;;6.91;100.00
69784;BME280;57054;51.978;4.498;2024-02-28T10:00:03;102127.00;;;6.93;100.00
69784;BME280;57054;51.978;4.498;2024-02-28T10:02:29;102117.38;;;6.97;100.00
69784;BME280;57054;51.978;4.498;2024-02-28T10:04:55;102114.78;;;6.98;100.00
69784;BME280;57054;51.978;4.498;2024-02-28T10:07:21;102117.38;;;7.00;100.00
69784;BME280;57054;51.978;4.498;2024-02-28T10:09:46;102121.72;;;7.02;100.00
69784;BME280;57054;51.978;4.498;2024-02-28T10:12:12;102115.63;;;7.00;100.00
69784;BME280;57054;51.978;4.498;2024-02-28T10:14:37;102105.22;;;7.02;100.00
69784;BME280;57054;51.978;4.498;2024-02-28T10:17:03;102112.16;;;7.03;100.00
69784;BME280;57054;51.978;4.498;2024-02-28T10:19:28;102112.16;;;7.06;100.00
69784;BME280;57054;51.978;4.498;2024-02-28T10:21:55;102110.41;;;7.09;100.00
69784;BME280;57054;51.978;4.498;2024-02-28T10:24:20;102111.25;;;7.13;100.00
69784;BME280;57054;51.978;4.498;2024-02-28T10:26:46;102121.63;;;7.18;100.00
69784;BME280;57054;51.978;4.498;2024-02-28T10:29:23;102112.03;;;7.23;100.00
69784;BME280;57054;51.978;4.498;2024-02-28T10:31:56;102110.25;;;7.31;100.00
69784;BME280;57054;51.978;4.498;2024-02-28T10:34:21;102109.31;;;7.38;100.00
69784;BME280;57054;51.978;4.498;2024-02-28T10:36:47;102111.06;;;7.42;100.00
69784;BME280;57054;51.978;4.498;2024-02-28T10:39:12;102111.00;;;7.50;100.00
69784;BME280;57054;51.978;4.498;2024-02-28T10:41:38;102108.31;;;7.56;100.00
69784;BME280;57054;51.978;4.498;2024-02-28T10:44:04;102110.91;;;7.61;100.00
69784;BME280;57054;51.978;4.498;2024-02-28T10:46:30;102109.16;;;7.63;100.00
69784;BME280;57054;51.978;4.498;2024-02-28T10:48:55;102109.16;;;7.63;100.00
69784;BME280;57054;51.978;4.498;2024-02-28T10:51:25;102115.22;;;7.63;100.00
69784;BME280;57054;51.978;4.498;2024-02-28T10:53:54;102117.81;;;7.65;100.00
69784;BME280;57054;51.978;4.498;2024-02-28T10:56:23;102116.03;;;7.70;100.00
69784;BME280;57054;51.978;4.498;2024-02-28T10:58:51;102116.88;;;7.74;100.00
69784;BME280;57054;51.978;4.498;2024-02-28T11:01:17;102112.50;;;7.77;100.00
69784;BME280;57054;51.978;4.498;2024-02-28T11:03:43;102118.56;;;7.81;100.00
69784;BME280;57054;51.978;4.498;2024-02-28T11:06:16;102114.19;;;7.83;100.00
69784;BME280;57054;51.978;4.498;2024-02-28T11:08:45;102120.28;;;7.82;100.00
69784;BME280;57054;51.978;4.498;2024-02-28T11:11:13;102117.66;;;7.83;100.00
69784;BME280;57054;51.978;4.498;2024-02-28T11:13:39;102116.81;;;7.80;100.00
69784;BME280;57054;51.978;4.498;2024-02-28T11:16:08;102113.34;;;7.82;100.00
69784;BME280;57054;51.978;4.498;2024-02-28T11:18:33;102108.97;;;7.84;100.00
69784;BME280;57054;51.978;4.498;2024-02-28T11:20:58;102110.69;;;7.87;100.00
69784;BME280;57054;51.978;4.498;2024-02-28T11:23:24;102108.91;;;7.91;100.00
69784;BME280;57054;51.978;4.498;2024-02-28T11:25:49;102107.13;;;7.94;100.00
69784;BME280;57054;51.978;4.498;2024-02-28T11:28:15;102100.16;;;7.98;100.00
69784;BME280;57054;51.978;4.498;2024-02-28T11:30:40;102095.75;;;8.01;100.00
69784;BME280;57054;51.978;4.498;2024-02-28T11:33:06;102098.34;;;8.03;100.00
69784;BME280;57054;51.978;4.498;2024-02-28T11:35:33;102092.19;;;8.10;100.00
69784;BME280;57054;51.978;4.498;2024-02-28T11:37:59;102091.28;;;8.13;100.00
69784;BME280;57054;51.978;4.498;2024-02-28T11:40:24;102086.09;;;8.11;100.00
69784;BME280;57054;51.978;4.498;2024-02-28T11:42:53;102086.16;;;8.06;100.00
69784;BME280;57054;51.978;4.498;2024-02-28T11:45:19;102090.44;;;8.11;100.00
69784;BME280;57054;51.978;4.498;2024-02-28T11:47:46;102085.22;;;8.11;100.00
69784;BME280;57054;51.978;4.498;2024-02-28T11:50:12;102087.81;;;8.12;100.00
69784;BME280;57054;51.978;4.498;2024-02-28T11:52:37;102090.34;;;8.18;100.00
69784;BME280;57054;51.978;4.498;2024-02-28T11:55:03;102092.97;;;8.20;100.00
69784;BME280;57054;51.978;4.498;2024-02-28T11:57:29;102092.09;;;8.21;100.00
69784;BME280;57054;51.978;4.498;2024-02-28T11:59:56;102096.41;;;8.20;100.00
69784;BME280;57054;51.978;4.498;2024-02-28T12:02:22;102086.91;;;8.16;100.00
69784;BME280;57054;51.978;4.498;2024-02-28T12:04:50;102087.81;;;8.12;100.00
69784;BME280;57054;51.978;4.498;2024-02-28T12:07:15;102094.81;;;8.08;100.00
69784;BME280;57054;51.978;4.498;2024-02-28T12:09:41;102097.47;;;8.04;100.00
69784;BME280;57054;51.978;4.498;2024-02-28T12:12:06;102095.75;;;8.04;100.00
69784;BME280;57054;51.978;4.498;2024-02-28T12:14:32;102100.94;;;8.06;100.00
69784;BME280;57054;51.978;4.498;2024-02-28T12:16:58;102103.56;;;8.04;100.00
69784;BME280;57054;51.978;4.498;2024-02-28T12:19:23;102104.44;;;8.05;100.00
69784;BME280;57054;51.978;4.498;2024-02-28T12:21:49;102093.16;;;8.01;100.00
69784;BME280;57054;51.978;4.498;2024-02-28T12:24:14;102105.38;;;7.95;100.00
69784;BME280;57054;51.978;4.498;2024-02-28T12:26:39;102093.25;;;7.89;100.00
69784;BME280;57054;51.978;4.498;2024-02-28T12:29:04;102093.25;;;7.91;100.00
69784;BME280;57054;51.978;4.498;2024-02-28T12:31:30;102090.66;;;7.87;100.00
69784;BME280;57054;51.978;4.498;2024-02-28T12:33:55;102079.38;;;7.85;100.00
69784;BME280;57054;51.978;4.498;2024-02-28T12:36:20;102083.75;;;7.85;100.00
69784;BME280;57054;51.978;4.498;2024-02-28T12:38:46;102085.50;;;7.81;100.00
69784;BME280;57054;51.978;4.498;2024-02-28T12:41:11;102089.88;;;7.82;100.00